createdAt,value
2018-11-25T00:00:54.744Z,6.50
2018-11-25T00:03:26.969Z,6.50
2018-11-25T00:05:58.038Z,6.50
2018-11-25T00:08:28.646Z,6.50
2018-11-25T00:11:01.585Z,6.40
2018-11-25T00:13:32.665Z,6.40
2018-11-25T00:16:07.861Z,6.40
2018-11-25T00:18:40.081Z,6.40
2018-11-25T00:21:11.427Z,6.40
2018-11-25T00:23:55.756Z,6.40
2018-11-25T00:26:28.509Z,6.40
2018-11-25T00:28:59.414Z,6.40
2018-11-25T00:31:31.461Z,6.40
2018-11-25T00:34:02.393Z,6.40
2018-11-25T00:36:33.576Z,6.40
2018-11-25T00:39:04.833Z,6.40
2018-11-25T00:41:35.619Z,6.30
2018-11-25T00:44:06.900Z,6.40
2018-11-25T00:46:38.130Z,6.30
2018-11-25T00:49:09.183Z,6.30
2018-11-25T00:51:41.859Z,6.40
2018-11-25T00:54:13.595Z,6.30
2018-11-25T00:56:45.343Z,6.30
2018-11-25T00:59:18.766Z,6.30
2018-11-25T01:01:50.071Z,6.30
2018-11-25T01:04:23.229Z,6.30
2018-11-25T01:06:56.306Z,6.30
2018-11-25T01:09:27.234Z,6.30
2018-11-25T01:11:58.352Z,6.30
2018-11-25T01:14:31.519Z,6.30
2018-11-25T01:17:02.589Z,6.30
2018-11-25T01:19:33.854Z,6.30
2018-11-25T01:22:04.564Z,6.30
2018-11-25T01:24:36.838Z,6.30
2018-11-25T01:27:09.000Z,6.30
2018-11-25T01:29:39.863Z,6.30
2018-11-25T01:32:10.552Z,6.30
2018-11-25T01:34:41.374Z,6.20
2018-11-25T01:37:12.987Z,6.30
2018-11-25T01:39:44.492Z,6.30
2018-11-25T01:42:15.433Z,6.30
2018-11-25T01:44:55.634Z,6.30
2018-11-25T01:47:27.751Z,6.30
2018-11-25T01:49:58.544Z,6.30
2018-11-25T01:52:29.581Z,6.30
2018-11-25T01:55:00.688Z,6.30
2018-11-25T01:57:33.235Z,6.30
2018-11-25T02:00:04.907Z,6.30
2018-11-25T02:02:35.934Z,6.30
2018-11-25T02:05:07.317Z,6.30
2018-11-25T02:07:38.877Z,6.30
2018-11-25T02:10:16.196Z,6.30
2018-11-25T02:12:48.670Z,6.30
2018-11-25T02:15:20.754Z,6.30
2018-11-25T02:17:53.075Z,6.30
2018-11-25T02:20:25.213Z,6.20
2018-11-25T02:22:59.561Z,6.20
2018-11-25T02:25:32.006Z,6.20
2018-11-25T02:28:05.103Z,6.30
2018-11-25T02:30:36.066Z,6.20
2018-11-25T02:33:08.695Z,6.20
2018-11-25T02:35:40.973Z,6.20
2018-11-25T02:38:12.722Z,6.20
2018-11-25T02:40:43.553Z,6.20
2018-11-25T02:43:14.440Z,6.20
2018-11-25T02:45:45.182Z,6.20
2018-11-25T02:48:17.098Z,6.20
2018-11-25T02:50:48.154Z,6.20
2018-11-25T02:53:20.109Z,6.20
2018-11-25T02:55:52.283Z,6.10
2018-11-25T02:58:23.671Z,6.10
2018-11-25T03:00:54.636Z,6.10
2018-11-25T03:03:25.911Z,6.10
2018-11-25T03:05:57.068Z,6.10
2018-11-25T03:08:27.861Z,6.10
2018-11-25T03:10:59.145Z,6.10
2018-11-25T03:13:30.311Z,6.10
2018-11-25T03:16:01.370Z,6.10
2018-11-25T03:18:33.414Z,6.10
2018-11-25T03:21:04.453Z,6.10
2018-11-25T03:23:36.706Z,6.00
2018-11-25T03:26:07.876Z,6.10
2018-11-25T03:28:40.350Z,6.00
2018-11-25T03:31:12.585Z,6.00
2018-11-25T03:33:43.366Z,6.00
2018-11-25T03:36:14.316Z,6.00
2018-11-25T03:38:48.060Z,6.10
2018-11-25T03:41:20.587Z,6.00
2018-11-25T03:43:55.000Z,6.00
2018-11-25T03:46:25.627Z,6.00
2018-11-25T03:48:56.555Z,6.00
2018-11-25T03:51:27.537Z,6.00
2018-11-25T03:53:59.077Z,6.00
2018-11-25T03:56:29.825Z,6.00
2018-11-25T03:59:01.370Z,6.00
2018-11-25T04:01:33.609Z,6.00
2018-11-25T04:04:04.871Z,6.00
2018-11-25T04:06:35.913Z,6.00
2018-11-25T04:09:09.764Z,6.00
2018-11-25T04:11:41.159Z,6.00
2018-11-25T04:14:12.082Z,6.00
2018-11-25T04:16:43.116Z,6.00
2018-11-25T04:19:15.435Z,6.00
2018-11-25T04:21:46.354Z,6.00
2018-11-25T04:24:17.423Z,6.00
2018-11-25T04:26:48.331Z,6.00
2018-11-25T04:29:19.191Z,6.00
2018-11-25T04:31:49.881Z,6.00
2018-11-25T04:34:20.945Z,6.00
2018-11-25T04:52:28.769Z,5.90
2018-11-25T04:55:01.958Z,6.00
2018-11-25T04:57:32.787Z,6.00
2018-11-25T05:00:03.947Z,5.90
2018-11-25T05:02:34.972Z,5.90
2018-11-25T05:05:07.056Z,5.90
2018-11-25T05:07:39.758Z,5.90
2018-11-25T05:10:14.281Z,5.90
2018-11-25T05:12:46.292Z,6.00
2018-11-25T05:15:21.985Z,6.00
2018-11-25T05:17:54.270Z,6.10
2018-11-25T05:20:25.159Z,6.10
2018-11-25T05:22:58.218Z,6.00
2018-11-25T05:25:29.273Z,6.00
2018-11-25T05:28:02.498Z,6.00
2018-11-25T05:30:33.629Z,6.00
2018-11-25T05:33:06.754Z,6.00
2018-11-25T05:35:38.492Z,6.00
2018-11-25T05:38:09.411Z,6.00
2018-11-25T05:40:40.330Z,6.00
2018-11-25T05:43:11.626Z,6.00
2018-11-25T05:45:42.436Z,6.00
2018-11-25T05:48:14.354Z,6.00
2018-11-25T05:50:45.020Z,6.00
2018-11-25T05:53:16.066Z,6.00
2018-11-25T05:55:47.199Z,6.00
2018-11-25T05:58:18.031Z,5.90
2018-11-25T06:00:50.826Z,6.00
2018-11-25T06:03:23.164Z,5.90
2018-11-25T06:05:54.084Z,5.90
2018-11-25T06:08:24.965Z,5.80
2018-11-25T06:10:56.457Z,5.80
2018-11-25T06:13:27.560Z,5.80
2018-11-25T06:15:59.190Z,5.80
2018-11-25T06:18:30.335Z,5.70
2018-11-25T06:21:01.197Z,5.70
2018-11-25T06:23:32.365Z,5.70
2018-11-25T06:26:03.597Z,5.60
2018-11-25T06:28:34.506Z,5.60
2018-11-25T06:31:06.641Z,5.70
2018-11-25T06:33:39.180Z,5.70
2018-11-25T06:36:10.257Z,5.70
2018-11-25T06:38:40.957Z,5.70
2018-11-25T06:41:11.875Z,5.70
2018-11-25T06:43:43.056Z,5.70
2018-11-25T06:46:14.949Z,5.70
2018-11-25T06:48:54.558Z,5.60
2018-11-25T06:51:19.959Z,5.60
2018-11-25T06:53:50.870Z,5.60
2018-11-25T06:56:27.359Z,5.60
2018-11-25T06:58:55.267Z,5.60
2018-11-25T07:01:26.213Z,5.60
2018-11-25T07:03:57.253Z,5.60
2018-11-25T07:06:30.697Z,5.60
2018-11-25T07:09:03.093Z,5.60
2018-11-25T07:11:34.585Z,5.70
2018-11-25T07:14:05.895Z,5.70
2018-11-25T07:16:39.360Z,5.80
2018-11-25T07:19:11.640Z,5.80
2018-11-25T07:21:43.901Z,5.90
2018-11-25T07:24:14.841Z,6.00
2018-11-25T07:26:45.601Z,6.00
2018-11-25T07:29:19.088Z,6.00
2018-11-25T07:31:50.493Z,5.90
2018-11-25T07:34:22.852Z,6.00
2018-11-25T07:36:55.032Z,6.00
2018-11-25T07:39:27.265Z,6.10
2018-11-25T07:41:59.181Z,6.10
2018-11-25T07:44:31.657Z,6.10
2018-11-25T07:47:02.634Z,6.20
2018-11-25T07:49:34.412Z,6.20
2018-11-25T07:52:05.513Z,6.20
2018-11-25T07:54:36.306Z,6.20
2018-11-25T07:57:08.234Z,6.20
2018-11-25T07:59:39.413Z,6.30
2018-11-25T08:02:10.448Z,6.30
2018-11-25T08:04:42.015Z,6.20
2018-11-25T08:07:14.052Z,6.20
2018-11-25T08:09:46.351Z,6.20
2018-11-25T08:12:17.122Z,6.30
2018-11-25T08:14:49.821Z,6.40
2018-11-25T08:17:22.443Z,6.40
2018-11-25T08:19:53.745Z,6.50
2018-11-25T08:22:24.877Z,6.50
2018-11-25T08:24:55.803Z,6.60
2018-11-25T08:27:26.757Z,6.70
2018-11-25T08:29:58.030Z,6.90
2018-11-25T08:32:29.005Z,6.80
2018-11-25T08:35:00.184Z,6.90
2018-11-25T08:37:32.584Z,7.10
2018-11-25T08:40:04.518Z,7.30
2018-11-25T08:42:35.498Z,7.20
2018-11-25T08:45:09.851Z,7.20
2018-11-25T08:47:41.892Z,7.20
2018-11-25T08:50:16.694Z,7.30
2018-11-25T08:52:50.439Z,7.60
2018-11-25T08:55:26.659Z,8.00
2018-11-25T08:58:01.571Z,8.40
2018-11-25T09:00:32.765Z,8.80
2018-11-25T09:03:03.763Z,9.00
2018-11-25T09:05:35.410Z,9.10
2018-11-25T09:08:06.213Z,9.10
2018-11-25T09:10:38.755Z,9.20
2018-11-25T09:13:09.478Z,9.50
2018-11-25T09:15:40.906Z,9.70
2018-11-25T09:18:13.029Z,9.70
2018-11-25T09:20:46.655Z,9.50
2018-11-25T09:23:19.005Z,9.40
2018-11-25T09:25:51.390Z,9.30
2018-11-25T09:28:22.092Z,9.30
2018-11-25T09:30:54.022Z,9.30
2018-11-25T09:33:26.241Z,9.20
2018-11-25T09:35:58.569Z,9.20
2018-11-25T09:38:29.955Z,9.40
2018-11-25T09:41:02.366Z,9.60
2018-11-25T09:43:33.619Z,9.80
2018-11-25T09:46:05.960Z,10.10
2018-11-25T09:48:38.877Z,10.10
2018-11-25T09:51:10.330Z,10.10
2018-11-25T09:53:41.902Z,9.80
2018-11-25T09:56:15.030Z,9.60
2018-11-25T09:58:48.612Z,9.50
2018-11-25T10:01:20.858Z,9.10
2018-11-25T10:03:54.568Z,9.20
2018-11-25T10:06:26.260Z,9.70
2018-11-25T10:08:59.701Z,9.90
2018-11-25T10:11:31.247Z,10.00
2018-11-25T10:14:03.490Z,10.10
2018-11-25T10:16:36.006Z,10.10
2018-11-25T10:19:07.326Z,9.90
2018-11-25T10:21:40.385Z,10.00
2018-11-25T10:24:11.743Z,9.80
2018-11-25T10:26:46.121Z,9.70
2018-11-25T10:29:17.201Z,9.60
2018-11-25T10:31:48.106Z,9.60
2018-11-25T10:34:20.748Z,9.60
2018-11-25T10:36:51.869Z,9.70
2018-11-25T10:39:27.934Z,9.80
2018-11-25T10:41:59.019Z,9.60
2018-11-25T10:44:29.892Z,9.50
2018-11-25T10:47:01.515Z,9.60
2018-11-25T10:49:32.802Z,9.60
2018-11-25T10:52:05.452Z,9.80
2018-11-25T10:54:37.901Z,9.90
2018-11-25T10:57:09.267Z,10.00
2018-11-25T10:59:40.289Z,10.20
2018-11-25T11:02:17.802Z,10.40
2018-11-25T11:04:53.794Z,10.60
2018-11-25T11:07:32.295Z,10.50
2018-11-25T11:10:04.189Z,10.50
2018-11-25T11:12:37.758Z,10.60
2018-11-25T11:15:13.128Z,10.50
2018-11-25T11:17:44.742Z,10.40
2018-11-25T11:20:15.845Z,10.30
2018-11-25T11:22:48.454Z,10.30
2018-11-25T11:25:20.775Z,10.20
2018-11-25T11:27:52.289Z,10.20
2018-11-25T11:30:23.531Z,10.30
2018-11-25T11:32:56.794Z,10.20
2018-11-25T11:35:29.071Z,10.20
2018-11-25T11:38:01.744Z,10.10
2018-11-25T11:40:32.667Z,10.10
2018-11-25T11:43:03.504Z,10.10
2018-11-25T11:45:35.617Z,10.10
2018-11-25T11:48:07.397Z,10.20
2018-11-25T11:50:40.189Z,10.30
2018-11-25T11:53:12.644Z,10.50
2018-11-25T11:55:43.764Z,10.60
2018-11-25T11:58:14.948Z,10.60
2018-11-25T12:00:46.189Z,10.60
2018-11-25T12:03:26.082Z,10.80
2018-11-25T12:05:50.105Z,10.80
2018-11-25T12:08:23.590Z,10.80
2018-11-25T12:10:54.837Z,10.60
2018-11-25T12:13:26.423Z,10.60
2018-11-25T12:15:59.873Z,10.60
2018-11-25T12:18:31.695Z,10.60
2018-11-25T12:21:05.180Z,10.30
2018-11-25T12:23:36.237Z,10.10
2018-11-25T12:26:07.444Z,10.10
2018-11-25T12:28:38.778Z,10.10
2018-11-25T12:31:09.819Z,10.10
2018-11-25T12:33:40.481Z,10.20
2018-11-25T12:36:14.229Z,10.30
2018-11-25T12:38:45.418Z,10.30
2018-11-25T12:41:17.786Z,10.40
2018-11-25T12:43:50.492Z,10.60
2018-11-25T12:46:22.228Z,10.60
2018-11-25T12:48:53.561Z,10.50
2018-11-25T12:51:24.578Z,10.50
2018-11-25T12:53:55.729Z,10.50
2018-11-25T12:56:26.193Z,10.50
2018-11-25T12:58:56.804Z,10.50
2018-11-25T13:01:27.923Z,10.50
2018-11-25T13:04:00.167Z,10.40
2018-11-25T13:06:31.067Z,10.40
2018-11-25T13:09:03.041Z,10.40
2018-11-25T13:11:34.346Z,10.50
2018-11-25T13:14:05.380Z,10.30
2018-11-25T13:16:36.553Z,10.40
2018-11-25T13:19:07.710Z,10.30
2018-11-25T13:21:38.732Z,10.30
2018-11-25T13:24:09.303Z,10.30
2018-11-25T13:26:39.806Z,10.20
2018-11-25T13:29:10.298Z,10.10
2018-11-25T13:31:40.839Z,10.20
2018-11-25T13:34:11.562Z,10.10
2018-11-25T13:36:42.115Z,10.10
2018-11-25T13:39:12.709Z,10.00
2018-11-25T13:41:43.223Z,10.00
2018-11-25T13:44:14.078Z,9.90
2018-11-25T13:46:50.455Z,9.90
2018-11-25T13:49:21.002Z,10.00
2018-11-25T13:51:52.179Z,9.90
2018-11-25T13:54:22.803Z,10.00
2018-11-25T13:56:53.362Z,10.00
2018-11-25T13:59:23.905Z,9.90
2018-11-25T14:01:55.256Z,9.70
2018-11-25T14:04:26.061Z,9.70
2018-11-25T14:06:58.652Z,9.70
2018-11-25T14:09:31.323Z,9.70
2018-11-25T14:12:02.611Z,9.60
2018-11-25T14:14:33.262Z,9.60
2018-11-25T14:17:04.037Z,9.60
2018-11-25T14:19:36.749Z,9.50
2018-11-25T14:22:07.686Z,9.40
2018-11-25T14:24:40.040Z,9.40
2018-11-25T14:27:12.828Z,9.40
2018-11-25T14:29:44.517Z,9.30
2018-11-25T14:32:18.827Z,9.30
2018-11-25T14:34:50.945Z,9.20
2018-11-25T14:37:22.883Z,9.10
2018-11-25T14:39:53.396Z,9.10
2018-11-25T14:42:29.789Z,9.00
2018-11-25T14:45:01.838Z,9.00
2018-11-25T14:47:33.025Z,9.00
2018-11-25T14:50:05.999Z,8.90
2018-11-25T14:52:38.408Z,8.90
2018-11-25T14:58:16.347Z,8.90
2018-11-25T15:00:47.478Z,8.90
2018-11-25T15:03:18.358Z,8.90
2018-11-25T15:05:50.536Z,8.90
2018-11-25T15:08:26.662Z,8.90
2018-11-25T15:10:57.513Z,8.80
2018-11-25T15:13:28.411Z,8.80
2018-11-25T15:16:01.036Z,8.80
2018-11-25T15:18:31.499Z,8.80
2018-11-25T15:21:03.086Z,8.70
2018-11-25T15:23:36.678Z,8.80
2018-11-25T15:26:09.354Z,8.70
2018-11-25T15:28:40.210Z,8.70
2018-11-25T15:31:11.519Z,8.80
2018-11-25T15:33:42.434Z,8.80
2018-11-25T15:36:14.402Z,8.70
2018-11-25T15:38:44.865Z,8.70
2018-11-25T15:41:16.542Z,8.70
2018-11-25T15:43:47.489Z,8.70
2018-11-25T15:46:18.218Z,8.70
2018-11-25T15:48:48.761Z,8.60
2018-11-25T15:51:19.266Z,8.50
2018-11-25T15:53:49.735Z,8.50
2018-11-25T15:56:20.267Z,8.40
2018-11-25T15:58:50.816Z,8.40
2018-11-25T16:01:21.396Z,8.30
2018-11-25T16:03:52.681Z,8.30
2018-11-25T16:06:31.449Z,8.30
2018-11-25T16:09:02.702Z,8.20
2018-11-25T16:11:33.197Z,8.20
2018-11-25T16:14:05.425Z,8.10
2018-11-25T16:16:35.981Z,8.00
2018-11-25T16:19:06.630Z,8.00
2018-11-25T16:21:37.125Z,8.00
2018-11-25T16:24:09.169Z,8.00
2018-11-25T16:26:41.563Z,8.00
2018-11-25T16:29:21.077Z,7.90
2018-11-25T16:31:51.728Z,7.90
2018-11-25T16:34:24.127Z,8.00
2018-11-25T16:36:54.680Z,8.00
2018-11-25T16:39:25.634Z,7.90
2018-11-25T16:41:56.467Z,8.00
2018-11-25T16:44:27.045Z,7.90
2018-11-25T16:47:04.325Z,8.00
2018-11-25T16:49:36.805Z,7.90
2018-11-25T16:52:08.751Z,7.90
2018-11-25T16:54:41.109Z,7.80
2018-11-25T17:00:20.538Z,7.80
2018-11-25T17:02:51.085Z,7.80
2018-11-25T17:05:41.702Z,7.70
2018-11-25T17:08:25.022Z,7.80
2018-11-25T17:10:56.170Z,7.70
2018-11-25T17:13:27.763Z,7.60
2018-11-25T17:15:58.750Z,7.60
2018-11-25T17:18:31.031Z,7.60
2018-11-25T17:21:01.539Z,7.60
2018-11-25T17:23:33.135Z,7.50
2018-11-25T17:26:03.761Z,7.60
2018-11-25T17:28:34.551Z,7.60
2018-11-25T17:31:10.831Z,7.60
2018-11-25T17:33:41.413Z,7.60
2018-11-25T17:36:14.485Z,7.60
2018-11-25T17:38:46.410Z,7.50
2018-11-25T17:41:18.286Z,7.50
2018-11-25T17:43:49.995Z,7.50
2018-11-25T17:46:20.774Z,7.50
2018-11-25T17:48:52.309Z,7.60
2018-11-25T17:51:24.011Z,7.60
2018-11-25T17:53:55.188Z,7.60
2018-11-25T17:56:26.770Z,7.70
2018-11-25T17:58:58.517Z,7.70
2018-11-25T18:01:29.303Z,7.70
2018-11-25T18:04:00.119Z,7.70
2018-11-25T18:06:31.586Z,7.70
2018-11-25T18:09:02.145Z,7.70
2018-11-25T18:11:33.276Z,7.80
2018-11-25T18:14:03.757Z,7.70
2018-11-25T18:16:37.310Z,7.70
2018-11-25T18:19:21.570Z,7.70
2018-11-25T18:22:02.399Z,7.60
2018-11-25T18:24:32.949Z,7.60
2018-11-25T18:27:03.516Z,7.70
2018-11-25T18:29:36.378Z,7.70
2018-11-25T18:32:09.614Z,7.70
2018-11-25T18:34:40.178Z,7.70
2018-11-25T18:37:12.131Z,7.60
2018-11-25T18:39:42.693Z,7.60
2018-11-25T18:42:14.194Z,7.60
2018-11-25T18:44:45.115Z,7.60
2018-11-25T18:47:15.922Z,7.60
2018-11-25T18:49:47.115Z,7.60
2018-11-25T18:52:18.444Z,7.50
2018-11-25T18:54:47.896Z,7.50
2018-11-25T18:57:21.253Z,7.50
2018-11-25T18:59:53.890Z,7.50
2018-11-25T19:02:33.215Z,7.50
2018-11-25T19:05:04.533Z,7.50
2018-11-25T19:07:39.307Z,7.40
2018-11-25T19:10:21.792Z,7.50
2018-11-25T19:12:52.610Z,7.50
2018-11-25T19:15:24.143Z,7.40
2018-11-25T19:17:55.550Z,7.50
2018-11-25T19:20:29.205Z,7.50
2018-11-25T19:23:02.701Z,7.50
2018-11-25T19:25:38.072Z,7.50
2018-11-25T19:28:13.843Z,7.40
2018-11-25T19:30:44.366Z,7.50
2018-11-25T19:33:14.828Z,7.50
2018-11-25T19:35:45.317Z,7.50
2018-11-25T19:38:15.792Z,7.50
2018-11-25T19:40:46.242Z,7.50
2018-11-25T19:43:21.750Z,7.50
2018-11-25T19:45:52.294Z,7.50
2018-11-25T19:48:23.411Z,7.50
2018-11-25T19:50:55.147Z,7.50
2018-11-25T19:53:25.683Z,7.40
2018-11-25T19:56:00.222Z,7.50
2018-11-25T19:58:30.891Z,7.50
2018-11-25T20:01:04.236Z,7.50
2018-11-25T20:03:36.197Z,7.50
2018-11-25T20:06:07.113Z,7.50
2018-11-25T20:08:38.095Z,7.50
2018-11-25T20:11:08.688Z,7.50
2018-11-25T20:13:39.309Z,7.50
2018-11-25T20:16:14.846Z,7.40
2018-11-25T20:18:45.889Z,7.40
2018-11-25T20:21:21.745Z,7.40
2018-11-25T20:23:52.814Z,7.40
2018-11-25T20:26:25.394Z,7.40
2018-11-25T20:28:57.035Z,7.40
2018-11-25T20:31:28.124Z,7.40
2018-11-25T20:33:59.122Z,7.40
2018-11-25T20:36:29.649Z,7.40
2018-11-25T20:39:36.660Z,7.40
2018-11-25T20:42:13.217Z,7.40
2018-11-25T20:44:43.657Z,7.40
2018-11-25T20:47:14.235Z,7.40
2018-11-25T20:49:44.858Z,7.40
2018-11-25T20:52:28.815Z,7.40
2018-11-25T20:55:00.582Z,7.40
2018-11-25T20:57:31.036Z,7.40
2018-11-25T21:00:02.573Z,7.40
2018-11-25T21:02:33.534Z,7.40
2018-11-25T21:05:04.528Z,7.40
2018-11-25T21:07:35.776Z,7.50
2018-11-25T21:10:08.986Z,7.40
2018-11-25T21:12:39.947Z,7.40
2018-11-25T21:15:12.733Z,7.40
2018-11-25T21:17:44.046Z,7.40
2018-11-25T21:20:28.857Z,7.40
2018-11-25T21:22:59.772Z,7.40
2018-11-25T21:25:31.520Z,7.40
2018-11-25T21:28:04.478Z,7.40
2018-11-25T21:30:35.393Z,7.40
2018-11-25T21:33:07.515Z,7.40
2018-11-25T21:35:38.067Z,7.40
2018-11-25T21:38:08.590Z,7.50
2018-11-25T21:40:39.171Z,7.50
2018-11-25T21:43:09.809Z,7.50
2018-11-25T21:45:41.451Z,7.50
2018-11-25T21:48:15.243Z,7.40
2018-11-25T21:50:48.358Z,7.50
2018-11-25T21:53:18.982Z,7.40
2018-11-25T21:58:20.130Z,7.40
2018-11-25T22:00:51.617Z,7.40
2018-11-25T22:03:22.894Z,7.40
2018-11-25T22:05:53.996Z,7.40
2018-11-25T22:08:26.830Z,7.40
2018-11-25T22:10:57.810Z,7.40
2018-11-25T22:13:28.973Z,7.40
2018-11-25T22:16:01.496Z,7.40
2018-11-25T22:18:32.456Z,7.40
2018-11-25T22:21:03.013Z,7.40
2018-11-25T22:23:33.704Z,7.40
2018-11-25T22:26:06.716Z,7.40
2018-11-25T22:28:37.388Z,7.40
2018-11-25T22:31:08.650Z,7.40
2018-11-25T22:33:39.975Z,7.40
2018-11-25T22:36:12.969Z,7.40
2018-11-25T22:38:45.031Z,7.40
2018-11-25T22:41:16.042Z,7.40
2018-11-25T22:43:47.104Z,7.40
2018-11-25T22:46:18.046Z,7.40
2018-11-25T22:48:50.586Z,7.40
2018-11-25T22:51:21.067Z,7.40
2018-11-25T22:53:53.861Z,7.40
2018-11-25T22:56:26.947Z,7.40
2018-11-25T22:58:57.412Z,7.40
2018-11-25T23:01:28.190Z,7.50
2018-11-25T23:04:15.721Z,7.40
2018-11-25T23:07:04.948Z,7.40
2018-11-25T23:09:36.069Z,7.40
2018-11-25T23:12:08.112Z,7.40
2018-11-25T23:14:40.465Z,7.40
2018-11-25T23:17:11.928Z,7.50
2018-11-25T23:19:43.561Z,7.50
2018-11-25T23:22:14.533Z,7.40
2018-11-25T23:24:47.062Z,7.40
2018-11-25T23:27:21.589Z,7.40
2018-11-25T23:29:54.350Z,7.40
2018-11-25T23:32:27.868Z,7.40
2018-11-25T23:34:59.326Z,7.40
2018-11-25T23:37:30.637Z,7.40
2018-11-25T23:40:03.149Z,7.40
2018-11-25T23:42:34.702Z,7.40
2018-11-25T23:45:09.709Z,7.40
2018-11-25T23:47:41.637Z,7.40
2018-11-25T23:50:14.466Z,7.40
2018-11-25T23:52:48.152Z,7.40
2018-11-25T23:55:22.908Z,7.40
2018-11-25T23:57:55.297Z,7.40
